I2476 LMML-DTMB
Flight info
| Callsign | I2476 |
|---|---|
| Flight time | N/A |
| Altitude | 20000 |
| Route | GZO3A GZO M980 BASMO BASM1R |
| Aircraft | A320/M-S/7123 |
Departure
| Time | N/A |
|---|---|
| Airport | Malta International Airport (LMML) |
Arrival
| Time | 2026-04-29 16:25 |
|---|---|
| Airport | Monastir Habib Bourguiba International Airport (DTMB) |
| Time | Latitude | Longitude | Altitude | Speed | Heading |
|---|---|---|---|---|---|
| 2026-04-29 15:37 | 35.84853 | 14.46191 | 0 ft | 0 kts | 54° |
| 2026-04-29 15:40 | 35.84940 | 14.46342 | 0 ft | 59 kts | 54° |
| 2026-04-29 15:40 | 35.85277 | 14.46921 | 0 ft | 123 kts | 54° |
| 2026-04-29 15:40 | 35.85875 | 14.47957 | 0 ft | 180 kts | 52° |
| 2026-04-29 15:40 | 35.86624 | 14.49254 | 0 ft | 208 kts | 50° |
| 2026-04-29 15:41 | 35.87432 | 14.50763 | 0 ft | 216 kts | 55° |
| 2026-04-29 15:41 | 35.88208 | 14.52344 | 0 ft | 243 kts | 48° |
| 2026-04-29 15:41 | 35.89587 | 14.53594 | 0 ft | 259 kts | 10° |
| 2026-04-29 15:41 | 35.91200 | 14.53620 | 0 ft | 243 kts | 334° |
| 2026-04-29 15:42 | 35.92447 | 14.52453 | 0 ft | 236 kts | 298° |
| 2026-04-29 15:42 | 35.93126 | 14.50767 | 0 ft | 211 kts | 290° |
| 2026-04-29 15:42 | 35.93669 | 14.49174 | 0 ft | 214 kts | 289° |
| 2026-04-29 15:42 | 35.94214 | 14.47503 | 0 ft | 218 kts | 289° |
| 2026-04-29 15:43 | 35.94740 | 14.45887 | 0 ft | 218 kts | 289° |
| 2026-04-29 15:43 | 35.95284 | 14.44244 | 0 ft | 221 kts | 290° |
| 2026-04-29 15:43 | 35.95849 | 14.42567 | 0 ft | 224 kts | 290° |
| 2026-04-29 15:43 | 35.96434 | 14.40872 | 0 ft | 226 kts | 291° |
| 2026-04-29 15:44 | 35.97047 | 14.39134 | 0 ft | 227 kts | 291° |
| 2026-04-29 15:44 | 35.97691 | 14.37336 | 0 ft | 229 kts | 291° |
| 2026-04-29 15:44 | 35.98329 | 14.35567 | 0 ft | 231 kts | 291° |
| 2026-04-29 15:44 | 35.98978 | 14.33764 | 0 ft | 233 kts | 291° |
| 2026-04-29 15:45 | 35.99633 | 14.31951 | 0 ft | 235 kts | 291° |
| 2026-04-29 15:45 | 36.00276 | 14.30174 | 0 ft | 237 kts | 291° |
| 2026-04-29 15:45 | 36.00941 | 14.28333 | 0 ft | 239 kts | 291° |
| 2026-04-29 15:45 | 36.01607 | 14.26484 | 0 ft | 242 kts | 291° |
| 2026-04-29 15:46 | 36.02294 | 14.24582 | 0 ft | 248 kts | 291° |
| 2026-04-29 15:46 | 36.02891 | 14.22501 | 0 ft | 266 kts | 278° |
| 2026-04-29 15:46 | 36.03075 | 14.20236 | 0 ft | 275 kts | 272° |
| 2026-04-29 15:46 | 36.03128 | 14.17858 | 0 ft | 285 kts | 270° |
| 2026-04-29 15:47 | 36.03107 | 14.15401 | 0 ft | 293 kts | 269° |
| 2026-04-29 15:47 | 36.03035 | 14.12884 | 0 ft | 300 kts | 268° |
| 2026-04-29 15:47 | 36.02927 | 14.10305 | 0 ft | 307 kts | 267° |
| 2026-04-29 15:47 | 36.02792 | 14.07657 | 0 ft | 313 kts | 266° |
| 2026-04-29 15:48 | 36.02642 | 14.05052 | 0 ft | 318 kts | 266° |
| 2026-04-29 15:48 | 36.02474 | 14.02319 | 0 ft | 323 kts | 266° |
| 2026-04-29 15:48 | 36.02296 | 13.99563 | 0 ft | 327 kts | 265° |
| 2026-04-29 15:48 | 36.02114 | 13.96786 | 0 ft | 330 kts | 265° |
| 2026-04-29 15:49 | 36.01925 | 13.93980 | 0 ft | 334 kts | 265° |
| 2026-04-29 15:49 | 36.01730 | 13.91137 | 0 ft | 337 kts | 265° |
| 2026-04-29 15:49 | 36.01533 | 13.88290 | 0 ft | 339 kts | 265° |
| 2026-04-29 15:49 | 36.01335 | 13.85447 | 0 ft | 341 kts | 265° |
| 2026-04-29 15:50 | 36.01130 | 13.82520 | 0 ft | 346 kts | 265° |
| 2026-04-29 15:50 | 36.00918 | 13.79506 | 0 ft | 357 kts | 265° |
| 2026-04-29 15:50 | 36.00699 | 13.76401 | 0 ft | 370 kts | 265° |
| 2026-04-29 15:50 | 36.00486 | 13.73389 | 0 ft | 382 kts | 265° |
| 2026-04-29 15:51 | 36.00267 | 13.70307 | 0 ft | 393 kts | 265° |
| 2026-04-29 15:51 | 36.00035 | 13.67045 | 0 ft | 404 kts | 265° |
| 2026-04-29 15:51 | 35.99792 | 13.63655 | 0 ft | 415 kts | 265° |
| 2026-04-29 15:51 | 35.99535 | 13.60076 | 0 ft | 423 kts | 265° |
| 2026-04-29 15:52 | 35.99279 | 13.56533 | 0 ft | 424 kts | 265° |
| 2026-04-29 15:52 | 35.99027 | 13.53070 | 0 ft | 423 kts | 265° |
| 2026-04-29 15:52 | 35.98778 | 13.49653 | 0 ft | 422 kts | 265° |
| 2026-04-29 15:52 | 35.98518 | 13.46100 | 0 ft | 423 kts | 265° |
| 2026-04-29 15:53 | 35.98250 | 13.42466 | 0 ft | 424 kts | 265° |
| 2026-04-29 15:53 | 35.97983 | 13.38856 | 0 ft | 423 kts | 265° |
| 2026-04-29 15:53 | 35.97724 | 13.35373 | 0 ft | 423 kts | 265° |
| 2026-04-29 15:53 | 35.97494 | 13.32286 | 0 ft | 423 kts | 265° |
| 2026-04-29 15:54 | 35.97302 | 13.29721 | 0 ft | 423 kts | 265° |
| 2026-04-29 15:54 | 35.97129 | 13.27415 | 0 ft | 423 kts | 265° |
| 2026-04-29 15:54 | 35.96938 | 13.24876 | 0 ft | 423 kts | 265° |
| 2026-04-29 15:54 | 35.96764 | 13.22555 | 0 ft | 423 kts | 265° |
| 2026-04-29 15:55 | 35.96564 | 13.19905 | 0 ft | 423 kts | 265° |
| 2026-04-29 15:55 | 35.96299 | 13.16403 | 0 ft | 422 kts | 265° |
| 2026-04-29 15:55 | 35.96033 | 13.12898 | 0 ft | 422 kts | 265° |
| 2026-04-29 15:55 | 35.95764 | 13.09365 | 0 ft | 420 kts | 265° |
| 2026-04-29 15:56 | 35.95503 | 13.05955 | 0 ft | 423 kts | 265° |
| 2026-04-29 15:56 | 35.95231 | 13.02412 | 0 ft | 416 kts | 265° |
| 2026-04-29 15:56 | 35.94963 | 12.98944 | 0 ft | 409 kts | 265° |
| 2026-04-29 15:56 | 35.94700 | 12.95553 | 0 ft | 405 kts | 264° |
| 2026-04-29 15:57 | 35.94433 | 12.92121 | 0 ft | 403 kts | 264° |
| 2026-04-29 15:57 | 35.94166 | 12.88704 | 0 ft | 399 kts | 264° |
| 2026-04-29 15:57 | 35.93907 | 12.85387 | 0 ft | 395 kts | 264° |
| 2026-04-29 15:57 | 35.93650 | 12.82127 | 0 ft | 392 kts | 264° |
| 2026-04-29 15:58 | 35.93397 | 12.78925 | 0 ft | 389 kts | 264° |
| 2026-04-29 15:58 | 35.93138 | 12.75657 | 0 ft | 385 kts | 264° |
| 2026-04-29 15:58 | 35.92887 | 12.72499 | 0 ft | 385 kts | 264° |
| 2026-04-29 15:58 | 35.92637 | 12.69359 | 0 ft | 386 kts | 264° |
| 2026-04-29 15:59 | 35.92375 | 12.66086 | 0 ft | 386 kts | 264° |
| 2026-04-29 15:59 | 35.92109 | 12.62776 | 0 ft | 387 kts | 264° |
| 2026-04-29 15:59 | 35.91843 | 12.59475 | 0 ft | 386 kts | 264° |
| 2026-04-29 15:59 | 35.91576 | 12.56178 | 0 ft | 386 kts | 264° |
| 2026-04-29 16:00 | 35.91311 | 12.52900 | 0 ft | 386 kts | 264° |
| 2026-04-29 16:00 | 35.91054 | 12.49750 | 0 ft | 386 kts | 264° |
| 2026-04-29 16:00 | 35.90792 | 12.46544 | 0 ft | 387 kts | 264° |
| 2026-04-29 16:00 | 35.90532 | 12.43371 | 0 ft | 387 kts | 264° |
| 2026-04-29 16:01 | 35.90267 | 12.40139 | 0 ft | 386 kts | 264° |
| 2026-04-29 16:01 | 35.90005 | 12.36969 | 0 ft | 386 kts | 264° |
| 2026-04-29 16:01 | 35.89739 | 12.33748 | 0 ft | 387 kts | 264° |
| 2026-04-29 16:01 | 35.89467 | 12.30470 | 0 ft | 387 kts | 264° |
| 2026-04-29 16:02 | 35.89193 | 12.27184 | 0 ft | 386 kts | 264° |
| 2026-04-29 16:02 | 35.88918 | 12.23893 | 0 ft | 386 kts | 264° |
| 2026-04-29 16:02 | 35.88641 | 12.20588 | 0 ft | 386 kts | 264° |
| 2026-04-29 16:02 | 35.88371 | 12.17379 | 0 ft | 387 kts | 264° |
| 2026-04-29 16:03 | 35.88097 | 12.14137 | 0 ft | 386 kts | 264° |
| 2026-04-29 16:03 | 35.87818 | 12.10840 | 0 ft | 386 kts | 264° |
| 2026-04-29 16:03 | 35.87540 | 12.07566 | 0 ft | 386 kts | 264° |
| 2026-04-29 16:03 | 35.87259 | 12.04272 | 0 ft | 386 kts | 264° |
| 2026-04-29 16:04 | 35.86977 | 12.00966 | 0 ft | 387 kts | 264° |
| 2026-04-29 16:04 | 35.86694 | 11.97672 | 0 ft | 386 kts | 264° |
| 2026-04-29 16:04 | 35.86411 | 11.94380 | 0 ft | 386 kts | 264° |
| 2026-04-29 16:04 | 35.86126 | 11.91089 | 0 ft | 386 kts | 264° |
| 2026-04-29 16:05 | 35.85841 | 11.87794 | 0 ft | 387 kts | 264° |
| 2026-04-29 16:05 | 35.85560 | 11.84558 | 0 ft | 386 kts | 264° |
| 2026-04-29 16:05 | 35.85282 | 11.81368 | 0 ft | 386 kts | 264° |
| 2026-04-29 16:05 | 35.85001 | 11.78158 | 0 ft | 386 kts | 264° |
| 2026-04-29 16:06 | 35.84719 | 11.74947 | 0 ft | 386 kts | 264° |
| 2026-04-29 16:06 | 35.84429 | 11.71647 | 0 ft | 387 kts | 264° |
| 2026-04-29 16:06 | 35.84143 | 11.68410 | 0 ft | 386 kts | 264° |
| 2026-04-29 16:06 | 35.83853 | 11.65143 | 0 ft | 386 kts | 264° |
| 2026-04-29 16:07 | 35.83567 | 11.61919 | 0 ft | 386 kts | 264° |
| 2026-04-29 16:07 | 35.83374 | 11.59748 | 0 ft | 386 kts | 264° |
| 2026-04-29 16:07 | 35.83008 | 11.55659 | 0 ft | 387 kts | 264° |
| 2026-04-29 16:07 | 35.82717 | 11.52407 | 0 ft | 386 kts | 264° |
| 2026-04-29 16:08 | 35.82421 | 11.49119 | 0 ft | 386 kts | 264° |
| 2026-04-29 16:08 | 35.82125 | 11.45833 | 0 ft | 389 kts | 264° |
| 2026-04-29 16:08 | 35.81828 | 11.42549 | 0 ft | 385 kts | 264° |
| 2026-04-29 16:08 | 35.81535 | 11.39322 | 0 ft | 369 kts | 264° |
| 2026-04-29 16:09 | 35.81259 | 11.36300 | 0 ft | 349 kts | 264° |
| 2026-04-29 16:09 | 35.81001 | 11.33490 | 0 ft | 333 kts | 264° |
| 2026-04-29 16:09 | 35.80752 | 11.30774 | 0 ft | 320 kts | 264° |
| 2026-04-29 16:09 | 35.80516 | 11.28200 | 0 ft | 309 kts | 264° |
| 2026-04-29 16:10 | 35.80285 | 11.25694 | 0 ft | 301 kts | 264° |
| 2026-04-29 16:10 | 35.80053 | 11.23178 | 0 ft | 299 kts | 264° |
| 2026-04-29 16:10 | 35.79821 | 11.20666 | 0 ft | 297 kts | 264° |
| 2026-04-29 16:10 | 35.79591 | 11.18180 | 0 ft | 294 kts | 264° |
| 2026-04-29 16:11 | 35.79365 | 11.15735 | 0 ft | 291 kts | 264° |
| 2026-04-29 16:11 | 35.79141 | 11.13325 | 0 ft | 289 kts | 264° |
| 2026-04-29 16:11 | 35.78913 | 11.10882 | 0 ft | 287 kts | 264° |
| 2026-04-29 16:11 | 35.78694 | 11.08535 | 0 ft | 285 kts | 264° |
| 2026-04-29 16:12 | 35.78477 | 11.06215 | 0 ft | 282 kts | 264° |
| 2026-04-29 16:12 | 35.78328 | 11.04628 | 0 ft | 280 kts | 264° |
| 2026-04-29 16:12 | 35.78045 | 11.01625 | 0 ft | 277 kts | 264° |
| 2026-04-29 16:12 | 35.77832 | 10.99355 | 0 ft | 273 kts | 264° |
| 2026-04-29 16:13 | 35.77627 | 10.97184 | 0 ft | 262 kts | 264° |
| 2026-04-29 16:13 | 35.77431 | 10.95116 | 0 ft | 241 kts | 264° |
| 2026-04-29 16:13 | 35.77248 | 10.93189 | 0 ft | 220 kts | 264° |
| 2026-04-29 16:13 | 35.77082 | 10.91447 | 0 ft | 207 kts | 264° |
| 2026-04-29 16:14 | 35.76919 | 10.89723 | 0 ft | 207 kts | 264° |
| 2026-04-29 16:14 | 35.76810 | 10.88582 | 0 ft | 207 kts | 264° |
| 2026-04-29 16:14 | 35.76653 | 10.86931 | 0 ft | 206 kts | 264° |
| 2026-04-29 16:14 | 35.76508 | 10.85404 | 0 ft | 207 kts | 264° |
| 2026-04-29 16:15 | 35.76341 | 10.83642 | 0 ft | 207 kts | 264° |
| 2026-04-29 16:15 | 35.76175 | 10.81908 | 0 ft | 206 kts | 264° |
| 2026-04-29 16:15 | 35.76012 | 10.80215 | 0 ft | 207 kts | 264° |
| 2026-04-29 16:15 | 35.75850 | 10.78517 | 0 ft | 207 kts | 264° |
| 2026-04-29 16:16 | 35.75671 | 10.76754 | 0 ft | 206 kts | 258° |
| 2026-04-29 16:16 | 35.75004 | 10.75370 | 0 ft | 213 kts | 216° |
| 2026-04-29 16:16 | 35.73764 | 10.74538 | 0 ft | 216 kts | 209° |
| 2026-04-29 16:16 | 35.72469 | 10.73767 | 0 ft | 214 kts | 210° |
| 2026-04-29 16:17 | 35.71227 | 10.72994 | 0 ft | 215 kts | 211° |
| 2026-04-29 16:17 | 35.69920 | 10.72127 | 0 ft | 214 kts | 212° |
| 2026-04-29 16:17 | 35.68637 | 10.71220 | 0 ft | 213 kts | 214° |
| 2026-04-29 16:17 | 35.67386 | 10.70289 | 0 ft | 214 kts | 215° |
| 2026-04-29 16:18 | 35.66168 | 10.69348 | 0 ft | 213 kts | 216° |
| 2026-04-29 16:18 | 35.64963 | 10.68395 | 0 ft | 212 kts | 216° |
| 2026-04-29 16:18 | 35.63825 | 10.67345 | 0 ft | 209 kts | 238° |
| 2026-04-29 16:18 | 35.63447 | 10.65732 | 0 ft | 208 kts | 282° |
| 2026-04-29 16:19 | 35.64136 | 10.64211 | 0 ft | 212 kts | 309° |
| 2026-04-29 16:19 | 35.65085 | 10.62876 | 0 ft | 209 kts | 306° |
| 2026-04-29 16:19 | 35.65917 | 10.61486 | 0 ft | 202 kts | 301° |
| 2026-04-29 16:19 | 35.66601 | 10.60084 | 0 ft | 186 kts | 296° |
| 2026-04-29 16:20 | 35.67144 | 10.58758 | 0 ft | 178 kts | 293° |
| 2026-04-29 16:20 | 35.67731 | 10.57430 | 0 ft | 183 kts | 305° |
| 2026-04-29 16:20 | 35.68560 | 10.56276 | 0 ft | 173 kts | 312° |
| 2026-04-29 16:20 | 35.69409 | 10.55271 | 0 ft | 177 kts | 311° |
| 2026-04-29 16:21 | 35.70334 | 10.54214 | 0 ft | 204 kts | 329° |
| 2026-04-29 16:21 | 35.71581 | 10.54047 | 0 ft | 210 kts | 11° |
| 2026-04-29 16:21 | 35.72736 | 10.55084 | 0 ft | 220 kts | 51° |
| 2026-04-29 16:21 | 35.73191 | 10.56735 | 0 ft | 237 kts | 88° |
| 2026-04-29 16:22 | 35.72914 | 10.58464 | 0 ft | 219 kts | 108° |
| 2026-04-29 16:22 | 35.72491 | 10.59860 | 0 ft | 181 kts | 116° |
| 2026-04-29 16:22 | 35.72394 | 10.61235 | 0 ft | 162 kts | 72° |
| 2026-04-29 16:22 | 35.72695 | 10.62459 | 0 ft | 166 kts | 72° |
| 2026-04-29 16:23 | 35.72990 | 10.63745 | 0 ft | 178 kts | 73° |
| 2026-04-29 16:23 | 35.73269 | 10.64994 | 0 ft | 158 kts | 73° |
| 2026-04-29 16:23 | 35.73573 | 10.66279 | 0 ft | 177 kts | 72° |
| 2026-04-29 16:23 | 35.73924 | 10.67702 | 0 ft | 180 kts | 71° |
| 2026-04-29 16:24 | 35.74238 | 10.68985 | 0 ft | 151 kts | 71° |
| 2026-04-29 16:24 | 35.74495 | 10.70037 | 0 ft | 153 kts | 72° |
| 2026-04-29 16:24 | 35.74744 | 10.71067 | 0 ft | 145 kts | 72° |
| 2026-04-29 16:24 | 35.74970 | 10.72014 | 0 ft | 129 kts | 72° |
| 2026-04-29 16:25 | 35.75155 | 10.72796 | 0 ft | 134 kts | 72° |
| 2026-04-29 16:25 | 35.75338 | 10.73573 | 0 ft | 124 kts | 72° |
| 2026-04-29 16:25 | 35.75509 | 10.74287 | 0 ft | 102 kts | 73° |
| 2026-04-29 16:25 | 35.75629 | 10.74765 | 0 ft | 46 kts | 73° |
| 2026-04-29 16:26 | 35.75672 | 10.74936 | 0 ft | 19 kts | 73° |
| 2026-04-29 16:26 | 35.75731 | 10.75172 | 0 ft | 35 kts | 73° |
| 2026-04-29 16:26 | 35.75778 | 10.75380 | 0 ft | 27 kts | 62° |
| 2026-04-29 16:26 | 35.75880 | 10.75453 | 0 ft | 22 kts | 352° |
| 2026-04-29 16:27 | 35.75980 | 10.75415 | 0 ft | 14 kts | 343° |
| 2026-04-29 16:27 | 35.75987 | 10.75412 | 0 ft | 0 kts | 343° |